createdAt,value
2023-04-18T00:01:50.337Z,98387.06
2023-04-18T00:04:21.154Z,98381.22
2023-04-18T00:06:50.141Z,98377.91
2023-04-18T00:09:17.131Z,98349.25
2023-04-18T00:11:44.101Z,98355.28
2023-04-18T00:14:10.655Z,98329.97
2023-04-18T00:16:38.350Z,98333.13
2023-04-18T00:19:05.412Z,98316.09
2023-04-18T00:21:32.427Z,98304.72
2023-04-18T00:23:59.671Z,98281.19
2023-04-18T00:26:26.492Z,98262.66
2023-04-18T00:28:53.312Z,98243.81
2023-04-18T00:31:20.395Z,98220.84
2023-04-18T00:33:49.687Z,98191.69
2023-04-18T00:36:16.228Z,98162.75
2023-04-18T00:38:46.060Z,98127.47
2023-04-18T00:41:12.951Z,98095.94
2023-04-18T00:43:39.577Z,98051.78
2023-04-18T00:46:06.671Z,98008.34
2023-04-18T00:48:33.661Z,97911.78
2023-04-18T00:51:00.963Z,97896.00
2023-04-18T00:53:28.240Z,97845.25
2023-04-18T00:55:55.238Z,97810.16
2023-04-18T00:58:22.181Z,97756.03
2023-04-18T01:00:48.968Z,97714.06
2023-04-18T01:03:18.533Z,97682.22
2023-04-18T01:05:45.905Z,97665.25
2023-04-18T01:08:12.783Z,97630.94
2023-04-18T01:10:39.432Z,97607.78
2023-04-18T01:13:15.116Z,97595.47
2023-04-18T01:15:42.830Z,97578.66
2023-04-18T01:18:13.437Z,97557.19
2023-04-18T01:20:41.659Z,97526.63
2023-04-18T01:23:10.722Z,97508.81
2023-04-18T01:25:37.744Z,97490.19
2023-04-18T01:28:04.855Z,97492.22
2023-04-18T01:30:31.715Z,97495.00
2023-04-18T01:32:58.539Z,97485.25
2023-04-18T01:35:25.782Z,97474.78
2023-04-18T01:37:52.446Z,97470.84
2023-04-18T01:40:19.188Z,97465.47
2023-04-18T01:42:45.730Z,97469.19
2023-04-18T01:45:16.177Z,97461.91
2023-04-18T01:47:46.385Z,97449.81
2023-04-18T01:50:17.276Z,97455.44
2023-04-18T01:52:43.878Z,97433.03
2023-04-18T01:55:10.941Z,97434.66
2023-04-18T01:57:38.546Z,97431.66
2023-04-18T02:00:06.511Z,97427.72
2023-04-18T02:02:33.358Z,97418.88
2023-04-18T02:05:00.321Z,97420.22
2023-04-18T02:07:26.915Z,97423.56
2023-04-18T02:09:53.810Z,97407.97
2023-04-18T02:12:21.248Z,97404.03
2023-04-18T02:14:51.466Z,97404.81
2023-04-18T02:17:18.164Z,97401.69
2023-04-18T02:19:48.409Z,97410.53
2023-04-18T02:22:15.103Z,97396.78
2023-04-18T02:24:42.125Z,97393.38
2023-04-18T02:27:09.195Z,97398.28
2023-04-18T02:29:38.486Z,97393.03
2023-04-18T02:32:05.676Z,97389.50
2023-04-18T02:34:34.098Z,97376.72
2023-04-18T02:37:01.064Z,97383.94
2023-04-18T02:39:27.688Z,97379.00
2023-04-18T02:41:54.483Z,97380.44
2023-04-18T02:44:21.502Z,97363.00
2023-04-18T02:46:48.142Z,97372.50
2023-04-18T02:49:14.785Z,97382.00
2023-04-18T02:51:41.424Z,97378.47
2023-04-18T02:54:08.047Z,97361.13
2023-04-18T02:56:39.974Z,97346.56
2023-04-18T02:59:07.428Z,97333.22
2023-04-18T03:01:34.642Z,97329.63
2023-04-18T03:04:01.180Z,97312.38
2023-04-18T03:06:28.083Z,97307.09
2023-04-18T03:08:55.302Z,97289.03
2023-04-18T03:11:22.834Z,97257.41
2023-04-18T03:13:49.434Z,97255.28
2023-04-18T03:16:16.861Z,97260.78
2023-04-18T03:18:43.813Z,97224.38
2023-04-18T03:21:10.760Z,97198.41
2023-04-18T03:23:37.772Z,97168.91
2023-04-18T03:26:05.841Z,97152.19
2023-04-18T03:28:32.640Z,97133.63
2023-04-18T03:30:59.471Z,97127.22
2023-04-18T03:33:26.051Z,97131.16
2023-04-18T03:35:52.711Z,97098.31
2023-04-18T03:38:19.337Z,97085.00
2023-04-18T03:40:46.382Z,97064.16
2023-04-18T03:43:13.962Z,97039.53
2023-04-18T03:45:40.849Z,97016.22
2023-04-18T03:48:07.464Z,96968.94
2023-04-18T03:50:34.328Z,96917.22
2023-04-18T03:53:01.323Z,96881.59
2023-04-18T03:55:28.193Z,96839.72
2023-04-18T03:57:54.953Z,96770.88
2023-04-18T04:00:21.835Z,96711.66
2023-04-18T04:02:48.504Z,96628.34
2023-04-18T04:05:15.427Z,96567.59
2023-04-18T04:07:42.238Z,96481.91
2023-04-18T04:10:09.070Z,96382.13
2023-04-18T04:12:36.268Z,96274.38
2023-04-18T04:15:02.916Z,96173.16
2023-04-18T04:17:29.715Z,96080.44
2023-04-18T04:19:56.724Z,95953.94
2023-04-18T04:22:23.754Z,95848.34
2023-04-18T04:24:51.323Z,95766.53
2023-04-18T04:27:19.071Z,95688.75
2023-04-18T04:29:45.655Z,95607.78
2023-04-18T04:32:13.141Z,95545.00
2023-04-18T04:34:41.508Z,95472.69
2023-04-18T04:37:08.568Z,95413.28
2023-04-18T04:39:35.369Z,95363.81
2023-04-18T04:42:04.765Z,95285.44
2023-04-18T04:44:31.570Z,95232.56
2023-04-18T04:46:58.174Z,95180.47
2023-04-18T04:49:24.774Z,95135.06
2023-04-18T04:51:51.511Z,95058.53
2023-04-18T04:54:18.250Z,95004.84
2023-04-18T04:56:45.574Z,94898.16
2023-04-18T04:59:12.171Z,94818.66
2023-04-18T05:01:38.960Z,94743.13
2023-04-18T05:04:06.279Z,94672.25
2023-04-18T05:06:33.206Z,94603.03
2023-04-18T05:09:01.249Z,94564.66
2023-04-18T05:11:28.241Z,94530.22
2023-04-18T05:13:55.250Z,94518.09
2023-04-18T05:16:21.913Z,94473.72
2023-04-18T05:18:52.366Z,94406.84
2023-04-18T05:21:19.001Z,94411.19
2023-04-18T05:23:46.665Z,94388.13
2023-04-18T05:26:14.316Z,94373.19
2023-04-18T05:28:41.615Z,94350.13
2023-04-18T05:31:08.330Z,94336.34
2023-04-18T05:33:36.431Z,94311.22
2023-04-18T05:36:03.110Z,94293.75
2023-04-18T05:38:29.815Z,94294.22
2023-04-18T05:40:57.274Z,94278.47
2023-04-18T05:43:23.734Z,94284.97
2023-04-18T05:45:57.752Z,94266.84
2023-04-18T05:48:25.512Z,94266.94
2023-04-18T05:50:52.419Z,94261.13
2023-04-18T05:53:20.562Z,94282.59
2023-04-18T05:55:48.890Z,94267.50
2023-04-18T05:58:15.826Z,94277.44
2023-04-18T06:00:42.781Z,94291.28
2023-04-18T06:03:11.010Z,94290.00
2023-04-18T06:05:38.243Z,94276.28
2023-04-18T06:08:05.162Z,94278.00
2023-04-18T06:10:31.639Z,94275.25
2023-04-18T06:12:58.798Z,94257.22
2023-04-18T06:15:25.398Z,94275.69
2023-04-18T06:17:52.023Z,94296.25
2023-04-18T06:20:23.401Z,94320.94
2023-04-18T06:22:50.087Z,94314.28
2023-04-18T06:25:16.800Z,94314.16
2023-04-18T06:27:43.364Z,94321.81
2023-04-18T06:30:10.660Z,94313.56
2023-04-18T06:32:37.365Z,94327.84
2023-04-18T06:35:04.095Z,94349.53
2023-04-18T06:37:30.779Z,94380.50
2023-04-18T06:39:57.290Z,94379.94
2023-04-18T06:42:24.109Z,94396.50
2023-04-18T06:44:50.602Z,94401.31
2023-04-18T06:47:17.351Z,94415.91
2023-04-18T06:49:47.202Z,94415.47
2023-04-18T06:52:14.162Z,94398.00
2023-04-18T06:54:40.812Z,94396.28
2023-04-18T06:57:07.539Z,94401.53
2023-04-18T06:59:35.684Z,94427.91
2023-04-18T07:02:03.502Z,94418.88
2023-04-18T07:04:30.258Z,94432.47
2023-04-18T07:06:56.955Z,94434.41
2023-04-18T07:09:23.928Z,94444.81
2023-04-18T07:11:52.900Z,94469.63
2023-04-18T07:14:23.291Z,94449.63
2023-04-18T07:16:50.327Z,94448.81
2023-04-18T07:19:17.209Z,94439.88
2023-04-18T07:21:46.422Z,94445.16
2023-04-18T07:24:13.347Z,94437.06
2023-04-18T07:26:40.877Z,94435.53
2023-04-18T07:29:07.447Z,94430.53
2023-04-18T07:31:34.619Z,94424.81
2023-04-18T07:34:01.445Z,94421.59
2023-04-18T07:36:28.631Z,94408.47
2023-04-18T07:38:55.570Z,94373.47
2023-04-18T07:41:22.442Z,94405.72
2023-04-18T07:43:49.164Z,94410.84
2023-04-18T07:46:21.975Z,94414.06
2023-04-18T07:48:48.894Z,94394.97
2023-04-18T07:51:15.887Z,94409.72
2023-04-18T07:53:43.678Z,94415.78
2023-04-18T07:56:12.759Z,94405.28
2023-04-18T07:58:39.370Z,94398.28
2023-04-18T08:01:07.255Z,94387.63
2023-04-18T08:03:36.674Z,94386.38
2023-04-18T08:06:03.584Z,94393.69
2023-04-18T08:08:30.397Z,94399.97
2023-04-18T08:10:58.216Z,94407.53
2023-04-18T08:13:24.928Z,94417.91
2023-04-18T08:15:51.789Z,94422.25
2023-04-18T08:18:20.093Z,94456.63
2023-04-18T08:20:47.025Z,94492.75
2023-04-18T08:23:13.798Z,94549.38
2023-04-18T08:25:40.882Z,94597.59
2023-04-18T08:28:07.780Z,94657.09
2023-04-18T08:30:35.715Z,94718.03
2023-04-18T08:33:02.436Z,94827.66
2023-04-18T08:35:29.231Z,94925.03
2023-04-18T08:37:55.811Z,95063.09
2023-04-18T08:40:25.333Z,95147.59
2023-04-18T08:42:53.182Z,95242.28
2023-04-18T08:45:20.370Z,95343.31
2023-04-18T08:47:47.792Z,95462.38
2023-04-18T08:50:14.489Z,95577.34
2023-04-18T08:52:45.311Z,95643.91
2023-04-18T08:55:19.414Z,95743.53
2023-04-18T08:57:46.388Z,95832.63
2023-04-18T09:00:13.755Z,95911.69
2023-04-18T09:02:45.239Z,96015.34
2023-04-18T09:05:21.736Z,96060.63
2023-04-18T09:07:49.711Z,96126.03
2023-04-18T09:10:26.868Z,96172.03
2023-04-18T09:12:53.552Z,96204.13
2023-04-18T09:15:23.895Z,96290.19
2023-04-18T09:17:54.039Z,96370.34
2023-04-18T09:20:30.898Z,96412.25
2023-04-18T09:23:00.883Z,96476.81
2023-04-18T09:25:29.590Z,96559.28
2023-04-18T09:27:57.555Z,96602.50
2023-04-18T09:30:35.090Z,96620.50
2023-04-18T09:33:04.877Z,96678.63
2023-04-18T09:35:32.280Z,96681.75
2023-04-18T09:38:00.666Z,96713.59
2023-04-18T09:40:27.665Z,96735.19
2023-04-18T09:42:55.020Z,96751.66
2023-04-18T09:45:23.057Z,96754.03
2023-04-18T09:47:49.995Z,96785.84
2023-04-18T09:50:21.013Z,96816.06
2023-04-18T09:52:48.277Z,96881.69
2023-04-18T09:55:16.525Z,96933.84
2023-04-18T09:57:47.479Z,97013.03
2023-04-18T10:00:24.071Z,97066.41
2023-04-18T10:02:56.872Z,97095.47
2023-04-18T10:05:28.837Z,97123.72
2023-04-18T10:07:55.976Z,97148.72
2023-04-18T10:10:23.031Z,97161.22
2023-04-18T10:12:51.054Z,97167.69
2023-04-18T10:15:20.466Z,97220.63
2023-04-18T10:18:04.587Z,97249.09
2023-04-18T10:20:33.007Z,97291.56
2023-04-18T10:23:00.176Z,97304.19
2023-04-18T10:25:39.062Z,97396.41
2023-04-18T10:28:09.319Z,97430.69
2023-04-18T10:30:42.217Z,97433.84
2023-04-18T10:33:31.831Z,97444.28
2023-04-18T10:36:14.009Z,97527.09
2023-04-18T10:38:48.061Z,97555.28
2023-04-18T10:41:23.941Z,97546.84
2023-04-18T10:44:09.259Z,97583.66
2023-04-18T10:46:36.621Z,97604.06
2023-04-18T10:49:13.553Z,97707.34
2023-04-18T10:51:40.535Z,97718.22
2023-04-18T10:54:09.730Z,97746.59
2023-04-18T10:56:37.271Z,97770.03
2023-04-18T10:59:04.367Z,97782.19
2023-04-18T11:01:33.179Z,97759.44
2023-04-18T11:04:00.915Z,97775.59
2023-04-18T11:06:28.576Z,97757.84
2023-04-18T11:09:14.459Z,97765.06
2023-04-18T11:11:41.939Z,97760.09
2023-04-18T11:14:08.586Z,97753.88
2023-04-18T11:16:35.868Z,97791.50
2023-04-18T11:19:18.332Z,97823.53
2023-04-18T11:21:45.095Z,97845.97
2023-04-18T11:24:12.161Z,97868.75
2023-04-18T11:26:39.022Z,97878.34
2023-04-18T11:29:06.248Z,97880.66
2023-04-18T11:31:33.694Z,97894.47
2023-04-18T11:34:02.370Z,97886.94
2023-04-18T11:36:29.166Z,97924.94
2023-04-18T11:38:56.540Z,97950.16
2023-04-18T11:41:23.303Z,97952.69
2023-04-18T11:43:49.985Z,97965.88
2023-04-18T11:46:17.216Z,97974.81
2023-04-18T11:48:45.446Z,97977.44
2023-04-18T11:51:31.254Z,97976.91
2023-04-18T11:53:57.784Z,97981.59
2023-04-18T11:56:24.512Z,98001.56
2023-04-18T11:58:51.370Z,98015.16
2023-04-18T12:01:22.066Z,98037.59
2023-04-18T12:04:05.540Z,98057.09
2023-04-18T12:07:02.641Z,98115.88
2023-04-18T12:09:29.292Z,98159.88
2023-04-18T12:12:03.293Z,98173.06
2023-04-18T12:14:30.238Z,98203.63
2023-04-18T12:16:57.177Z,98264.38
2023-04-18T12:19:28.225Z,98269.09
2023-04-18T12:21:57.346Z,98299.34
2023-04-18T12:24:27.007Z,98302.72
2023-04-18T12:26:53.502Z,98287.59
2023-04-18T12:29:20.173Z,98299.78
2023-04-18T12:31:47.497Z,98315.06
2023-04-18T12:34:14.352Z,98340.06
2023-04-18T12:36:41.180Z,98385.22
2023-04-18T12:39:07.938Z,98391.66
2023-04-18T12:41:36.658Z,98398.91
2023-04-18T12:44:03.750Z,98418.19
2023-04-18T12:46:30.954Z,98406.00
2023-04-18T12:48:57.651Z,98434.28
2023-04-18T12:51:26.272Z,98431.34
2023-04-18T12:53:53.031Z,98432.44
2023-04-18T12:56:21.346Z,98423.44
2023-04-18T12:58:48.008Z,98429.56
2023-04-18T13:01:14.653Z,98432.22
2023-04-18T13:03:42.133Z,98439.19
2023-04-18T13:06:09.328Z,98425.91
2023-04-18T13:08:37.838Z,98439.03
2023-04-18T13:11:04.500Z,98446.69
2023-04-18T13:13:31.668Z,98447.75
2023-04-18T13:15:59.131Z,98463.28
2023-04-18T13:18:25.801Z,98464.69
2023-04-18T13:20:52.927Z,98480.06
2023-04-18T13:23:19.562Z,98482.38
2023-04-18T13:25:46.190Z,98525.75
2023-04-18T13:28:15.590Z,98532.16
2023-04-18T13:30:42.226Z,98543.59
2023-04-18T13:33:10.452Z,98567.53
2023-04-18T13:35:37.354Z,98551.56
2023-04-18T13:38:04.210Z,98563.00
2023-04-18T13:40:30.865Z,98551.34
2023-04-18T13:42:57.373Z,98582.50
2023-04-18T13:45:23.971Z,98569.56
2023-04-18T13:47:51.204Z,98579.34
2023-04-18T13:50:18.356Z,98590.47
2023-04-18T13:52:44.882Z,98587.34
2023-04-18T13:55:12.638Z,98559.28
2023-04-18T13:57:39.640Z,98572.16
2023-04-18T14:00:06.774Z,98573.63
2023-04-18T14:02:33.604Z,98567.06
2023-04-18T14:05:00.484Z,98552.25
2023-04-18T14:07:27.375Z,98565.00
2023-04-18T14:09:54.171Z,98581.31
2023-04-18T14:12:21.245Z,98579.16
2023-04-18T14:14:49.132Z,98585.34
2023-04-18T14:17:15.748Z,98588.06
2023-04-18T14:19:42.435Z,98600.94
2023-04-18T14:22:08.996Z,98602.19
2023-04-18T14:24:36.116Z,98598.34
2023-04-18T14:27:02.832Z,98593.38
2023-04-18T14:29:29.847Z,98600.78
2023-04-18T14:31:56.448Z,98595.13
2023-04-18T14:34:22.953Z,98576.53
2023-04-18T14:36:49.633Z,98594.38
2023-04-18T14:39:16.432Z,98597.88
2023-04-18T14:41:42.960Z,98600.44
2023-04-18T14:44:13.718Z,98596.38
2023-04-18T14:46:40.646Z,98622.09
2023-04-18T14:49:07.452Z,98630.88
2023-04-18T14:51:33.978Z,98643.88
2023-04-18T14:54:00.759Z,98643.13
2023-04-18T14:56:27.472Z,98657.44
2023-04-18T14:58:54.212Z,98656.66
2023-04-18T15:01:20.802Z,98675.22
2023-04-18T15:03:47.791Z,98656.09
2023-04-18T15:06:14.852Z,98662.50
2023-04-18T15:08:44.331Z,98654.78
2023-04-18T15:11:10.985Z,98660.03
2023-04-18T15:13:37.796Z,98647.06
2023-04-18T15:16:04.558Z,98646.03
2023-04-18T15:18:31.208Z,98646.09
2023-04-18T15:20:59.672Z,98641.59
2023-04-18T15:23:26.286Z,98631.69
2023-04-18T15:25:52.957Z,98619.19
2023-04-18T15:28:19.721Z,98630.56
2023-04-18T15:30:46.938Z,98622.38
2023-04-18T15:33:13.988Z,98632.91
2023-04-18T15:35:41.330Z,98642.75
2023-04-18T15:38:08.174Z,98639.38
2023-04-18T15:40:36.360Z,98639.38
2023-04-18T15:43:02.944Z,98637.41
2023-04-18T15:45:29.876Z,98635.66
2023-04-18T15:47:56.975Z,98644.59
2023-04-18T15:50:23.985Z,98635.28
2023-04-18T15:52:50.763Z,98631.66
2023-04-18T15:55:17.600Z,98627.66
2023-04-18T15:57:44.096Z,98622.66
2023-04-18T16:00:17.689Z,98622.41
2023-04-18T16:02:45.492Z,98605.00
2023-04-18T16:05:12.658Z,98621.81
2023-04-18T16:07:40.347Z,98626.97
2023-04-18T16:10:10.317Z,98611.72
2023-04-18T16:12:37.963Z,98618.81
2023-04-18T16:15:08.790Z,98617.97
2023-04-18T16:17:38.490Z,98612.28
2023-04-18T16:20:09.324Z,98625.28
2023-04-18T16:22:36.078Z,98612.75
2023-04-18T16:25:03.372Z,98618.84
2023-04-18T16:27:30.340Z,98617.88
2023-04-18T16:29:57.253Z,98610.50
2023-04-18T16:32:24.011Z,98620.81
2023-04-18T16:34:50.857Z,98617.88
2023-04-18T16:37:17.541Z,98600.72
2023-04-18T16:39:44.100Z,98611.66
2023-04-18T16:42:11.059Z,98615.63
2023-04-18T16:44:39.754Z,98607.81
2023-04-18T16:47:08.398Z,98599.50
2023-04-18T16:49:35.244Z,98578.63
2023-04-18T16:52:02.236Z,98560.13
2023-04-18T16:54:29.215Z,98551.59
2023-04-18T16:56:55.858Z,98535.25
2023-04-18T16:59:22.676Z,98504.50
2023-04-18T17:01:49.205Z,98489.31
2023-04-18T17:04:18.763Z,98488.56
2023-04-18T17:06:45.370Z,98438.69
2023-04-18T17:09:13.800Z,98389.66
2023-04-18T17:11:41.439Z,98355.16
2023-04-18T17:14:08.957Z,98319.44
2023-04-18T17:16:39.219Z,98304.88
2023-04-18T17:19:06.318Z,98294.66
2023-04-18T17:21:33.620Z,98281.97
2023-04-18T17:24:03.833Z,98288.69
2023-04-18T17:26:30.959Z,98278.44
2023-04-18T17:28:57.541Z,98270.72
2023-04-18T17:31:24.107Z,98258.06
2023-04-18T17:33:51.032Z,98248.69
2023-04-18T17:36:17.998Z,98244.03
2023-04-18T17:38:49.018Z,98217.28
2023-04-18T17:41:16.746Z,98210.16
2023-04-18T17:43:44.118Z,98174.34
2023-04-18T17:46:11.527Z,98162.06
2023-04-18T17:48:38.555Z,98130.34
2023-04-18T17:51:05.499Z,98127.56
2023-04-18T17:53:32.558Z,98107.59
2023-04-18T17:55:59.513Z,98091.13
2023-04-18T17:58:29.402Z,98018.31
2023-04-18T18:00:56.622Z,97932.59
2023-04-18T18:03:23.304Z,97865.88
2023-04-18T18:05:49.932Z,97750.91
2023-04-18T18:08:16.708Z,97642.69
2023-04-18T18:10:44.388Z,97515.06
2023-04-18T18:13:11.518Z,97357.44
2023-04-18T18:15:38.333Z,97186.94
2023-04-18T18:18:07.762Z,96927.06
2023-04-18T18:20:34.803Z,96798.56
2023-04-18T18:23:02.098Z,96699.91
2023-04-18T18:25:29.310Z,96600.88
2023-04-18T18:27:56.026Z,96484.84
2023-04-18T18:30:22.800Z,96390.53
2023-04-18T18:32:49.995Z,96301.09
2023-04-18T18:35:16.762Z,96234.56
2023-04-18T18:37:43.553Z,96174.56
2023-04-18T18:40:10.607Z,96148.19
2023-04-18T18:42:37.959Z,96132.97
2023-04-18T18:45:05.480Z,96129.53
2023-04-18T18:47:32.345Z,96145.38
2023-04-18T18:49:59.509Z,96156.31
2023-04-18T18:52:28.294Z,96177.41
2023-04-18T18:54:55.330Z,96174.56
2023-04-18T18:57:26.256Z,96198.50
2023-04-18T18:59:55.156Z,96220.41
2023-04-18T19:02:22.508Z,96238.28
2023-04-18T19:04:49.752Z,96257.75
2023-04-18T19:07:16.594Z,96272.34
2023-04-18T19:09:43.461Z,96308.66
2023-04-18T19:12:10.103Z,96323.06
2023-04-18T19:14:36.716Z,96347.03
2023-04-18T19:17:03.428Z,96363.63
2023-04-18T19:19:30.243Z,96370.16
2023-04-18T19:21:58.018Z,96387.22
2023-04-18T19:24:24.720Z,96417.63
2023-04-18T19:26:51.815Z,96419.88
2023-04-18T19:29:18.618Z,96443.22
2023-04-18T19:31:45.840Z,96452.91
2023-04-18T19:34:13.686Z,96460.22
2023-04-18T19:36:40.476Z,96457.56
2023-04-18T19:39:07.177Z,96461.03
2023-04-18T19:41:33.734Z,96448.47
2023-04-18T19:44:00.578Z,96449.09
2023-04-18T19:46:27.130Z,96432.66
2023-04-18T19:48:54.052Z,96424.38
2023-04-18T19:51:20.571Z,96425.03
2023-04-18T19:53:47.426Z,96447.88
2023-04-18T19:56:15.088Z,96451.69
2023-04-18T19:58:46.351Z,96426.38
2023-04-18T20:01:13.378Z,96413.03
2023-04-18T20:03:40.736Z,96441.78
2023-04-18T20:06:08.383Z,96446.44
2023-04-18T20:08:36.441Z,96447.25
2023-04-18T20:11:04.064Z,96438.34
2023-04-18T20:13:30.676Z,96442.75
2023-04-18T20:15:57.653Z,96429.78
2023-04-18T20:18:24.236Z,96412.91
2023-04-18T20:20:50.733Z,96368.75
2023-04-18T20:23:17.326Z,96336.69
2023-04-18T20:25:43.850Z,96338.06
2023-04-18T20:28:11.370Z,96279.19
2023-04-18T20:30:37.938Z,96215.13
2023-04-18T20:33:04.486Z,96137.22
2023-04-18T20:35:31.623Z,96077.16
2023-04-18T20:37:58.376Z,95997.25
2023-04-18T20:40:25.655Z,95929.75
2023-04-18T20:42:54.625Z,95845.56
2023-04-18T20:45:24.032Z,95768.13
2023-04-18T20:47:51.027Z,95679.31
2023-04-18T20:50:18.481Z,95598.88
2023-04-18T20:52:45.059Z,95535.19
2023-04-18T20:55:11.923Z,95478.22
2023-04-18T20:57:38.697Z,95396.69
2023-04-18T21:00:07.441Z,95336.66
2023-04-18T21:02:34.551Z,95280.38
2023-04-18T21:05:01.221Z,95224.72
2023-04-18T21:07:27.888Z,95187.44
2023-04-18T21:09:54.554Z,95166.47
2023-04-18T21:12:21.071Z,95126.69
2023-04-18T21:14:48.736Z,95078.72
2023-04-18T21:17:17.912Z,95064.34
2023-04-18T21:19:45.614Z,94933.66
2023-04-18T21:22:12.441Z,94692.84
2023-04-18T21:24:40.631Z,94641.75
2023-04-18T21:27:07.653Z,94597.78
2023-04-18T21:29:34.903Z,94558.47
2023-04-18T21:32:01.604Z,94541.00
2023-04-18T21:34:28.754Z,94502.19
2023-04-18T21:36:55.698Z,94452.63
2023-04-18T21:39:22.309Z,94465.94
2023-04-18T21:41:49.044Z,94458.38
2023-04-18T21:44:18.831Z,94462.28
2023-04-18T21:46:45.684Z,94465.47
2023-04-18T21:49:12.410Z,94490.25
2023-04-18T21:51:39.117Z,94501.81
2023-04-18T21:54:07.441Z,94497.72
2023-04-18T21:56:34.232Z,94508.19
2023-04-18T21:59:01.089Z,94533.75
2023-04-18T22:01:27.898Z,94534.63
2023-04-18T22:03:54.653Z,94563.44
2023-04-18T22:06:23.230Z,94556.44
2023-04-18T22:08:50.418Z,94547.56
2023-04-18T22:11:18.894Z,94518.41
2023-04-18T22:13:46.018Z,94534.88
2023-04-18T22:16:12.749Z,94561.06
2023-04-18T22:18:39.592Z,94540.94
2023-04-18T22:21:06.361Z,94535.03
2023-04-18T22:23:33.088Z,94538.06
2023-04-18T22:25:59.762Z,94542.75
2023-04-18T22:28:28.175Z,94508.69
2023-04-18T22:30:55.044Z,94529.81
2023-04-18T22:33:21.625Z,94513.75
2023-04-18T22:35:48.756Z,94515.38
2023-04-18T22:38:15.959Z,94514.81
2023-04-18T22:40:42.799Z,94512.19
2023-04-18T22:43:09.398Z,94508.03
2023-04-18T22:45:36.020Z,94507.06
2023-04-18T22:48:03.122Z,94533.91
2023-04-18T22:50:30.477Z,94534.53
2023-04-18T22:52:57.555Z,94545.06
2023-04-18T22:55:24.515Z,94568.72
2023-04-18T22:57:51.058Z,94576.22
2023-04-18T23:00:17.576Z,94602.03
2023-04-18T23:02:44.326Z,94638.38
2023-04-18T23:05:11.682Z,94660.00
2023-04-18T23:07:38.443Z,94668.56
2023-04-18T23:10:06.599Z,94709.63
2023-04-18T23:12:33.316Z,94749.63
2023-04-18T23:15:02.146Z,94775.41
2023-04-18T23:17:28.764Z,94795.94
2023-04-18T23:19:55.745Z,94816.22
2023-04-18T23:22:24.245Z,94834.97
2023-04-18T23:24:51.144Z,94849.53
2023-04-18T23:27:18.970Z,94858.03
2023-04-18T23:29:48.009Z,94881.28
2023-04-18T23:32:14.692Z,94905.13
2023-04-18T23:34:41.462Z,94917.38
2023-04-18T23:37:09.783Z,94948.78
2023-04-18T23:39:36.517Z,94955.31
2023-04-18T23:42:03.245Z,94977.41
2023-04-18T23:44:29.805Z,95003.22
2023-04-18T23:46:56.474Z,95018.56
2023-04-18T23:49:23.134Z,95036.13
2023-04-18T23:51:49.913Z,95081.34
2023-04-18T23:54:16.805Z,95096.50
2023-04-18T23:56:43.562Z,95105.56
2023-04-18T23:59:10.039Z,95120.63
